sensor_id;sensor_type;location;lat;lon;timestamp;P1;durP1;ratioP1;P2;durP2;ratioP2
20462;SDS011;10390;53.566;9.980;2023-06-22T00:00:51;6.53;;;5.70;;
20462;SDS011;10390;53.566;9.980;2023-06-22T00:03:17;6.32;;;5.72;;
20462;SDS011;10390;53.566;9.980;2023-06-22T00:05:44;6.60;;;5.95;;
20462;SDS011;10390;53.566;9.980;2023-06-22T00:08:10;7.00;;;6.30;;
20462;SDS011;10390;53.566;9.980;2023-06-22T00:10:36;7.10;;;6.40;;
20462;SDS011;10390;53.566;9.980;2023-06-22T00:13:02;6.18;;;5.57;;
20462;SDS011;10390;53.566;9.980;2023-06-22T00:15:27;6.93;;;6.18;;
20462;SDS011;10390;53.566;9.980;2023-06-22T00:17:53;7.32;;;6.43;;
20462;SDS011;10390;53.566;9.980;2023-06-22T00:20:19;7.03;;;6.20;;
20462;SDS011;10390;53.566;9.980;2023-06-22T00:22:44;7.13;;;6.00;;
20462;SDS011;10390;53.566;9.980;2023-06-22T00:25:11;6.40;;;5.80;;
20462;SDS011;10390;53.566;9.980;2023-06-22T00:27:37;6.82;;;6.13;;
20462;SDS011;10390;53.566;9.980;2023-06-22T00:30:03;6.45;;;5.82;;
20462;SDS011;10390;53.566;9.980;2023-06-22T00:32:29;6.47;;;5.88;;
20462;SDS011;10390;53.566;9.980;2023-06-22T00:34:54;6.50;;;5.90;;
20462;SDS011;10390;53.566;9.980;2023-06-22T00:37:20;6.18;;;5.57;;
20462;SDS011;10390;53.566;9.980;2023-06-22T00:39:51;6.60;;;6.00;;
20462;SDS011;10390;53.566;9.980;2023-06-22T00:42:17;6.60;;;6.00;;
20462;SDS011;10390;53.566;9.980;2023-06-22T00:44:43;6.72;;;6.00;;
20462;SDS011;10390;53.566;9.980;2023-06-22T00:47:09;6.30;;;5.70;;
20462;SDS011;10390;53.566;9.980;2023-06-22T00:49:38;7.00;;;5.95;;
20462;SDS011;10390;53.566;9.980;2023-06-22T00:52:03;6.13;;;5.55;;
20462;SDS011;10390;53.566;9.980;2023-06-22T00:54:34;6.65;;;5.95;;
20462;SDS011;10390;53.566;9.980;2023-06-22T00:57:01;6.40;;;5.80;;
20462;SDS011;10390;53.566;9.980;2023-06-22T00:59:27;6.63;;;6.03;;
20462;SDS011;10390;53.566;9.980;2023-06-22T01:01:53;7.03;;;6.20;;
20462;SDS011;10390;53.566;9.980;2023-06-22T01:04:19;7.38;;;6.18;;
20462;SDS011;10390;53.566;9.980;2023-06-22T01:06:52;7.05;;;6.35;;
20462;SDS011;10390;53.566;9.980;2023-06-22T01:09:27;7.03;;;6.32;;
20462;SDS011;10390;53.566;9.980;2023-06-22T01:12:09;6.30;;;5.70;;
20462;SDS011;10390;53.566;9.980;2023-06-22T01:14:43;6.20;;;5.50;;
20462;SDS011;10390;53.566;9.980;2023-06-22T01:17:17;6.32;;;5.72;;
20462;SDS011;10390;53.566;9.980;2023-06-22T01:19:48;6.50;;;5.90;;
20462;SDS011;10390;53.566;9.980;2023-06-22T01:22:21;6.88;;;6.05;;
20462;SDS011;10390;53.566;9.980;2023-06-22T01:30:20;7.03;;;6.32;;
20462;SDS011;10390;53.566;9.980;2023-06-22T01:32:51;6.63;;;5.93;;
20462;SDS011;10390;53.566;9.980;2023-06-22T01:35:18;7.10;;;6.40;;
20462;SDS011;10390;53.566;9.980;2023-06-22T01:37:46;7.30;;;6.60;;
20462;SDS011;10390;53.566;9.980;2023-06-22T01:40:12;7.40;;;6.70;;
20462;SDS011;10390;53.566;9.980;2023-06-22T01:42:39;8.07;;;6.45;;
20462;SDS011;10390;53.566;9.980;2023-06-22T01:45:06;6.72;;;6.03;;
20462;SDS011;10390;53.566;9.980;2023-06-22T01:47:33;7.40;;;6.35;;
20462;SDS011;10390;53.566;9.980;2023-06-22T01:49:59;7.13;;;6.35;;
20462;SDS011;10390;53.566;9.980;2023-06-22T01:52:25;6.50;;;5.90;;
20462;SDS011;10390;53.566;9.980;2023-06-22T01:54:50;5.78;;;5.18;;
20462;SDS011;10390;53.566;9.980;2023-06-22T01:57:16;6.57;;;5.70;;
20462;SDS011;10390;53.566;9.980;2023-06-22T01:59:48;6.60;;;5.90;;
20462;SDS011;10390;53.566;9.980;2023-06-22T02:02:23;7.05;;;6.35;;
20462;SDS011;10390;53.566;9.980;2023-06-22T02:04:56;7.25;;;6.38;;
20462;SDS011;10390;53.566;9.980;2023-06-22T02:07:28;7.05;;;6.32;;
20462;SDS011;10390;53.566;9.980;2023-06-22T02:09:59;6.80;;;5.97;;
20462;SDS011;10390;53.566;9.980;2023-06-22T02:12:26;6.95;;;6.32;;
20462;SDS011;10390;53.566;9.980;2023-06-22T02:14:54;6.38;;;5.78;;
20462;SDS011;10390;53.566;9.980;2023-06-22T02:17:20;6.20;;;5.60;;
20462;SDS011;10390;53.566;9.980;2023-06-22T02:19:46;6.28;;;5.68;;
20462;SDS011;10390;53.566;9.980;2023-06-22T02:22:11;6.45;;;5.85;;
20462;SDS011;10390;53.566;9.980;2023-06-22T02:24:40;6.20;;;5.60;;
20462;SDS011;10390;53.566;9.980;2023-06-22T02:27:06;7.97;;;6.68;;
20462;SDS011;10390;53.566;9.980;2023-06-22T02:29:32;6.53;;;5.70;;
20462;SDS011;10390;53.566;9.980;2023-06-22T02:31:58;6.70;;;6.10;;
20462;SDS011;10390;53.566;9.980;2023-06-22T02:34:23;6.38;;;5.60;;
20462;SDS011;10390;53.566;9.980;2023-06-22T02:36:49;6.68;;;6.00;;
20462;SDS011;10390;53.566;9.980;2023-06-22T02:39:19;6.53;;;5.93;;
20462;SDS011;10390;53.566;9.980;2023-06-22T02:41:49;6.47;;;5.88;;
20462;SDS011;10390;53.566;9.980;2023-06-22T02:44:16;7.55;;;6.80;;
20462;SDS011;10390;53.566;9.980;2023-06-22T02:46:42;6.40;;;5.80;;
20462;SDS011;10390;53.566;9.980;2023-06-22T02:49:09;6.20;;;5.60;;
20462;SDS011;10390;53.566;9.980;2023-06-22T02:51:35;7.25;;;6.50;;
20462;SDS011;10390;53.566;9.980;2023-06-22T02:54:04;6.78;;;6.15;;
20462;SDS011;10390;53.566;9.980;2023-06-22T02:56:30;7.20;;;6.50;;
20462;SDS011;10390;53.566;9.980;2023-06-22T02:58:56;7.00;;;6.30;;
20462;SDS011;10390;53.566;9.980;2023-06-22T03:01:29;6.40;;;5.70;;
20462;SDS011;10390;53.566;9.980;2023-06-22T03:03:58;6.10;;;5.50;;
20462;SDS011;10390;53.566;9.980;2023-06-22T03:06:24;6.63;;;5.93;;
20462;SDS011;10390;53.566;9.980;2023-06-22T03:08:54;6.45;;;5.85;;
20462;SDS011;10390;53.566;9.980;2023-06-22T03:11:30;6.70;;;6.03;;
20462;SDS011;10390;53.566;9.980;2023-06-22T03:13:56;7.90;;;7.10;;
20462;SDS011;10390;53.566;9.980;2023-06-22T03:16:22;7.63;;;6.82;;
20462;SDS011;10390;53.566;9.980;2023-06-22T03:18:48;6.65;;;6.05;;
20462;SDS011;10390;53.566;9.980;2023-06-22T03:21:13;7.60;;;6.90;;
20462;SDS011;10390;53.566;9.980;2023-06-22T03:23:40;7.70;;;6.97;;
20462;SDS011;10390;53.566;9.980;2023-06-22T03:26:06;7.38;;;6.65;;
20462;SDS011;10390;53.566;9.980;2023-06-22T03:28:33;6.55;;;5.95;;
20462;SDS011;10390;53.566;9.980;2023-06-22T03:30:59;7.35;;;6.65;;
20462;SDS011;10390;53.566;9.980;2023-06-22T03:33:24;8.60;;;7.15;;
20462;SDS011;10390;53.566;9.980;2023-06-22T03:35:50;7.82;;;7.05;;
20462;SDS011;10390;53.566;9.980;2023-06-22T03:38:21;8.05;;;6.35;;
20462;SDS011;10390;53.566;9.980;2023-06-22T03:40:49;7.47;;;6.78;;
20462;SDS011;10390;53.566;9.980;2023-06-22T03:43:38;7.78;;;6.88;;
20462;SDS011;10390;53.566;9.980;2023-06-22T03:46:04;7.25;;;6.55;;
20462;SDS011;10390;53.566;9.980;2023-06-22T03:48:30;6.78;;;5.93;;
20462;SDS011;10390;53.566;9.980;2023-06-22T03:50:59;7.72;;;6.93;;
20462;SDS011;10390;53.566;9.980;2023-06-22T03:53:34;7.40;;;6.70;;
20462;SDS011;10390;53.566;9.980;2023-06-22T03:56:02;6.95;;;6.35;;
20462;SDS011;10390;53.566;9.980;2023-06-22T03:58:30;8.45;;;7.07;;
20462;SDS011;10390;53.566;9.980;2023-06-22T04:00:58;7.88;;;7.10;;
20462;SDS011;10390;53.566;9.980;2023-06-22T04:03:27;7.60;;;6.82;;
20462;SDS011;10390;53.566;9.980;2023-06-22T04:05:55;8.07;;;7.30;;
20462;SDS011;10390;53.566;9.980;2023-06-22T04:08:24;7.80;;;7.10;;
20462;SDS011;10390;53.566;9.980;2023-06-22T04:10:49;9.00;;;7.30;;
20462;SDS011;10390;53.566;9.980;2023-06-22T04:13:15;8.45;;;7.57;;
20462;SDS011;10390;53.566;9.980;2023-06-22T04:15:47;9.02;;;8.23;;
20462;SDS011;10390;53.566;9.980;2023-06-22T04:18:19;8.45;;;7.63;;
20462;SDS011;10390;53.566;9.980;2023-06-22T04:20:44;9.10;;;8.30;;
20462;SDS011;10390;53.566;9.980;2023-06-22T04:23:11;8.65;;;7.85;;
20462;SDS011;10390;53.566;9.980;2023-06-22T04:25:40;7.95;;;7.10;;
20462;SDS011;10390;53.566;9.980;2023-06-22T04:28:13;8.50;;;7.70;;
20462;SDS011;10390;53.566;9.980;2023-06-22T04:30:45;8.45;;;7.65;;
20462;SDS011;10390;53.566;9.980;2023-06-22T04:33:19;8.05;;;7.32;;
20462;SDS011;10390;53.566;9.980;2023-06-22T04:35:45;8.98;;;7.55;;
20462;SDS011;10390;53.566;9.980;2023-06-22T04:38:31;7.53;;;6.80;;
20462;SDS011;10390;53.566;9.980;2023-06-22T04:40:59;7.68;;;6.97;;
20462;SDS011;10390;53.566;9.980;2023-06-22T04:43:27;8.73;;;7.93;;
20462;SDS011;10390;53.566;9.980;2023-06-22T04:46:01;8.60;;;7.80;;
20462;SDS011;10390;53.566;9.980;2023-06-22T04:48:29;9.00;;;7.53;;
20462;SDS011;10390;53.566;9.980;2023-06-22T04:51:02;8.52;;;7.72;;
20462;SDS011;10390;53.566;9.980;2023-06-22T04:53:31;8.98;;;8.18;;
20462;SDS011;10390;53.566;9.980;2023-06-22T04:56:04;9.32;;;8.43;;
20462;SDS011;10390;53.566;9.980;2023-06-22T04:58:35;8.77;;;7.95;;
20462;SDS011;10390;53.566;9.980;2023-06-22T05:01:07;8.82;;;7.93;;
20462;SDS011;10390;53.566;9.980;2023-06-22T05:03:33;8.95;;;7.95;;
20462;SDS011;10390;53.566;9.980;2023-06-22T05:06:04;8.77;;;7.97;;
20462;SDS011;10390;53.566;9.980;2023-06-22T05:08:39;9.50;;;8.50;;
20462;SDS011;10390;53.566;9.980;2023-06-22T05:11:11;8.32;;;7.38;;
20462;SDS011;10390;53.566;9.980;2023-06-22T05:13:42;8.80;;;7.90;;
20462;SDS011;10390;53.566;9.980;2023-06-22T05:16:24;9.23;;;8.32;;
20462;SDS011;10390;53.566;9.980;2023-06-22T05:18:54;8.95;;;7.72;;
20462;SDS011;10390;53.566;9.980;2023-06-22T05:21:24;8.55;;;6.97;;
20462;SDS011;10390;53.566;9.980;2023-06-22T05:23:52;7.20;;;6.50;;
20462;SDS011;10390;53.566;9.980;2023-06-22T05:26:27;8.35;;;7.55;;
20462;SDS011;10390;53.566;9.980;2023-06-22T05:28:52;8.73;;;7.93;;
20462;SDS011;10390;53.566;9.980;2023-06-22T05:31:20;9.43;;;7.57;;
20462;SDS011;10390;53.566;9.980;2023-06-22T05:33:48;7.78;;;7.03;;
20462;SDS011;10390;53.566;9.980;2023-06-22T05:36:26;8.23;;;6.72;;
20462;SDS011;10390;53.566;9.980;2023-06-22T05:39:09;7.95;;;7.05;;
20462;SDS011;10390;53.566;9.980;2023-06-22T05:41:47;7.07;;;6.38;;
20462;SDS011;10390;53.566;9.980;2023-06-22T05:44:22;7.07;;;6.38;;
20462;SDS011;10390;53.566;9.980;2023-06-22T05:46:50;7.43;;;6.60;;
20462;SDS011;10390;53.566;9.980;2023-06-22T05:49:16;8.00;;;7.20;;
20462;SDS011;10390;53.566;9.980;2023-06-22T05:51:53;7.65;;;6.95;;
20462;SDS011;10390;53.566;9.980;2023-06-22T05:54:40;7.88;;;7.07;;
20462;SDS011;10390;53.566;9.980;2023-06-22T05:57:12;8.40;;;7.32;;
20462;SDS011;10390;53.566;9.980;2023-06-22T05:59:41;9.63;;;7.00;;
20462;SDS011;10390;53.566;9.980;2023-06-22T06:02:09;7.72;;;6.93;;
20462;SDS011;10390;53.566;9.980;2023-06-22T06:04:38;7.63;;;6.80;;
20462;SDS011;10390;53.566;9.980;2023-06-22T06:07:07;8.68;;;7.10;;
20462;SDS011;10390;53.566;9.980;2023-06-22T06:09:38;7.88;;;6.85;;
20462;SDS011;10390;53.566;9.980;2023-06-22T06:12:04;7.40;;;6.70;;
20462;SDS011;10390;53.566;9.980;2023-06-22T06:14:29;7.55;;;6.85;;
20462;SDS011;10390;53.566;9.980;2023-06-22T06:16:55;7.72;;;6.90;;
20462;SDS011;10390;53.566;9.980;2023-06-22T06:19:21;7.70;;;7.00;;
20462;SDS011;10390;53.566;9.980;2023-06-22T06:21:46;9.02;;;7.10;;
20462;SDS011;10390;53.566;9.980;2023-06-22T06:24:12;7.50;;;6.80;;
20462;SDS011;10390;53.566;9.980;2023-06-22T06:26:38;7.93;;;7.13;;
20462;SDS011;10390;53.566;9.980;2023-06-22T06:29:04;7.90;;;7.10;;
20462;SDS011;10390;53.566;9.980;2023-06-22T06:31:29;7.60;;;6.90;;
20462;SDS011;10390;53.566;9.980;2023-06-22T06:33:55;7.60;;;6.88;;
20462;SDS011;10390;53.566;9.980;2023-06-22T06:36:21;7.25;;;6.55;;
20462;SDS011;10390;53.566;9.980;2023-06-22T06:38:46;8.30;;;7.28;;
20462;SDS011;10390;53.566;9.980;2023-06-22T06:41:15;7.93;;;7.15;;
20462;SDS011;10390;53.566;9.980;2023-06-22T06:43:41;8.65;;;7.90;;
20462;SDS011;10390;53.566;9.980;2023-06-22T06:46:10;8.43;;;7.50;;
20462;SDS011;10390;53.566;9.980;2023-06-22T06:48:36;7.32;;;6.63;;
20462;SDS011;10390;53.566;9.980;2023-06-22T06:51:01;8.20;;;7.40;;
20462;SDS011;10390;53.566;9.980;2023-06-22T06:53:27;7.85;;;7.03;;
20462;SDS011;10390;53.566;9.980;2023-06-22T06:55:53;7.60;;;6.82;;
20462;SDS011;10390;53.566;9.980;2023-06-22T06:58:19;7.60;;;6.90;;
20462;SDS011;10390;53.566;9.980;2023-06-22T07:00:45;8.30;;;7.50;;
20462;SDS011;10390;53.566;9.980;2023-06-22T07:03:11;9.55;;;8.75;;
20462;SDS011;10390;53.566;9.980;2023-06-22T07:05:36;8.60;;;7.90;;
20462;SDS011;10390;53.566;9.980;2023-06-22T07:08:02;8.10;;;7.30;;
20462;SDS011;10390;53.566;9.980;2023-06-22T07:10:28;8.00;;;7.30;;
20462;SDS011;10390;53.566;9.980;2023-06-22T07:12:54;7.88;;;7.18;;
20462;SDS011;10390;53.566;9.980;2023-06-22T07:15:20;8.65;;;7.88;;
20462;SDS011;10390;53.566;9.980;2023-06-22T07:17:45;7.95;;;7.15;;
20462;SDS011;10390;53.566;9.980;2023-06-22T07:20:11;7.22;;;6.53;;
20462;SDS011;10390;53.566;9.980;2023-06-22T07:22:37;7.50;;;6.80;;
20462;SDS011;10390;53.566;9.980;2023-06-22T07:25:04;7.70;;;7.00;;
20462;SDS011;10390;53.566;9.980;2023-06-22T07:27:35;8.52;;;6.80;;
20462;SDS011;10390;53.566;9.980;2023-06-22T07:30:03;7.38;;;6.72;;
20462;SDS011;10390;53.566;9.980;2023-06-22T07:32:29;7.47;;;6.78;;
20462;SDS011;10390;53.566;9.980;2023-06-22T07:34:55;7.85;;;7.15;;
20462;SDS011;10390;53.566;9.980;2023-06-22T07:37:20;7.50;;;6.80;;
20462;SDS011;10390;53.566;9.980;2023-06-22T07:39:46;8.18;;;7.38;;
20462;SDS011;10390;53.566;9.980;2023-06-22T07:42:12;7.63;;;7.03;;
20462;SDS011;10390;53.566;9.980;2023-06-22T07:44:37;8.32;;;7.53;;
20462;SDS011;10390;53.566;9.980;2023-06-22T07:47:03;7.97;;;7.30;;
20462;SDS011;10390;53.566;9.980;2023-06-22T07:49:29;8.23;;;7.53;;
20462;SDS011;10390;53.566;9.980;2023-06-22T07:51:54;8.38;;;7.68;;
20462;SDS011;10390;53.566;9.980;2023-06-22T07:54:20;8.05;;;7.35;;
20462;SDS011;10390;53.566;9.980;2023-06-22T07:56:46;8.40;;;7.60;;
20462;SDS011;10390;53.566;9.980;2023-06-22T07:59:12;8.07;;;7.38;;
20462;SDS011;10390;53.566;9.980;2023-06-22T08:01:37;7.70;;;7.00;;
20462;SDS011;10390;53.566;9.980;2023-06-22T08:04:03;8.00;;;7.30;;
20462;SDS011;10390;53.566;9.980;2023-06-22T08:06:30;7.70;;;7.00;;
20462;SDS011;10390;53.566;9.980;2023-06-22T08:08:56;7.72;;;7.03;;
20462;SDS011;10390;53.566;9.980;2023-06-22T08:11:22;7.47;;;6.68;;
20462;SDS011;10390;53.566;9.980;2023-06-22T08:13:50;7.40;;;6.80;;
20462;SDS011;10390;53.566;9.980;2023-06-22T08:16:15;7.30;;;6.70;;
20462;SDS011;10390;53.566;9.980;2023-06-22T08:18:41;7.45;;;6.78;;
20462;SDS011;10390;53.566;9.980;2023-06-22T08:21:07;7.65;;;6.95;;
20462;SDS011;10390;53.566;9.980;2023-06-22T08:23:32;7.38;;;6.78;;
20462;SDS011;10390;53.566;9.980;2023-06-22T08:25:58;7.13;;;6.50;;
20462;SDS011;10390;53.566;9.980;2023-06-22T08:28:23;8.32;;;7.57;;
20462;SDS011;10390;53.566;9.980;2023-06-22T08:30:49;8.10;;;7.40;;
20462;SDS011;10390;53.566;9.980;2023-06-22T08:33:14;7.82;;;7.13;;
20462;SDS011;10390;53.566;9.980;2023-06-22T08:35:40;8.02;;;7.43;;
20462;SDS011;10390;53.566;9.980;2023-06-22T08:38:06;8.18;;;7.47;;
20462;SDS011;10390;53.566;9.980;2023-06-22T08:40:32;8.25;;;7.55;;
20462;SDS011;10390;53.566;9.980;2023-06-22T08:42:58;8.02;;;7.32;;
20462;SDS011;10390;53.566;9.980;2023-06-22T08:45:23;7.63;;;7.03;;
20462;SDS011;10390;53.566;9.980;2023-06-22T08:47:50;8.05;;;7.35;;
20462;SDS011;10390;53.566;9.980;2023-06-22T08:50:16;7.75;;;7.05;;
20462;SDS011;10390;53.566;9.980;2023-06-22T08:52:41;8.25;;;7.50;;
20462;SDS011;10390;53.566;9.980;2023-06-22T08:55:07;7.35;;;6.65;;
20462;SDS011;10390;53.566;9.980;2023-06-22T08:57:34;8.27;;;7.53;;
20462;SDS011;10390;53.566;9.980;2023-06-22T09:00:02;8.25;;;7.55;;
20462;SDS011;10390;53.566;9.980;2023-06-22T09:02:30;8.07;;;7.38;;
20462;SDS011;10390;53.566;9.980;2023-06-22T09:04:59;8.10;;;7.40;;
20462;SDS011;10390;53.566;9.980;2023-06-22T09:07:28;9.55;;;8.75;;
20462;SDS011;10390;53.566;9.980;2023-06-22T09:09:55;9.32;;;8.57;;
20462;SDS011;10390;53.566;9.980;2023-06-22T09:12:21;9.07;;;8.38;;
20462;SDS011;10390;53.566;9.980;2023-06-22T09:14:50;8.63;;;7.93;;
20462;SDS011;10390;53.566;9.980;2023-06-22T09:17:16;8.10;;;7.40;;
20462;SDS011;10390;53.566;9.980;2023-06-22T09:19:48;8.75;;;7.97;;
20462;SDS011;10390;53.566;9.980;2023-06-22T09:22:14;8.23;;;7.53;;
20462;SDS011;10390;53.566;9.980;2023-06-22T09:24:39;8.00;;;7.32;;
20462;SDS011;10390;53.566;9.980;2023-06-22T09:27:05;7.45;;;6.85;;
20462;SDS011;10390;53.566;9.980;2023-06-22T09:29:31;8.88;;;8.18;;
20462;SDS011;10390;53.566;9.980;2023-06-22T09:31:58;8.20;;;7.50;;
20462;SDS011;10390;53.566;9.980;2023-06-22T09:34:24;9.50;;;8.70;;
20462;SDS011;10390;53.566;9.980;2023-06-22T09:36:50;8.43;;;7.72;;
20462;SDS011;10390;53.566;9.980;2023-06-22T09:39:17;8.90;;;8.10;;
20462;SDS011;10390;53.566;9.980;2023-06-22T09:41:43;8.60;;;7.90;;
20462;SDS011;10390;53.566;9.980;2023-06-22T09:44:09;8.02;;;7.32;;
20462;SDS011;10390;53.566;9.980;2023-06-22T09:46:34;7.93;;;7.22;;
20462;SDS011;10390;53.566;9.980;2023-06-22T09:49:00;8.60;;;7.90;;
20462;SDS011;10390;53.566;9.980;2023-06-22T09:51:25;8.00;;;7.30;;
20462;SDS011;10390;53.566;9.980;2023-06-22T09:53:52;8.65;;;7.90;;
20462;SDS011;10390;53.566;9.980;2023-06-22T09:56:21;7.68;;;7.03;;
20462;SDS011;10390;53.566;9.980;2023-06-22T09:58:47;7.70;;;7.10;;
20462;SDS011;10390;53.566;9.980;2023-06-22T10:01:15;8.05;;;7.25;;
20462;SDS011;10390;53.566;9.980;2023-06-22T10:03:41;7.95;;;7.25;;
20462;SDS011;10390;53.566;9.980;2023-06-22T10:06:06;7.38;;;6.78;;
20462;SDS011;10390;53.566;9.980;2023-06-22T10:08:33;8.32;;;7.60;;
20462;SDS011;10390;53.566;9.980;2023-06-22T10:11:00;8.02;;;7.28;;
20462;SDS011;10390;53.566;9.980;2023-06-22T10:13:25;8.13;;;7.32;;
20462;SDS011;10390;53.566;9.980;2023-06-22T10:15:51;8.02;;;7.40;;
20462;SDS011;10390;53.566;9.980;2023-06-22T10:18:19;8.02;;;7.22;;
20462;SDS011;10390;53.566;9.980;2023-06-22T10:20:47;7.70;;;7.00;;
20462;SDS011;10390;53.566;9.980;2023-06-22T10:23:17;8.02;;;6.95;;
20462;SDS011;10390;53.566;9.980;2023-06-22T10:25:43;7.90;;;7.03;;
20462;SDS011;10390;53.566;9.980;2023-06-22T10:28:09;9.23;;;7.22;;
20462;SDS011;10390;53.566;9.980;2023-06-22T10:30:34;8.23;;;7.53;;
20462;SDS011;10390;53.566;9.980;2023-06-22T10:33:00;7.93;;;7.13;;
20462;SDS011;10390;53.566;9.980;2023-06-22T10:35:26;7.90;;;7.10;;
20462;SDS011;10390;53.566;9.980;2023-06-22T10:37:52;8.02;;;7.22;;
20462;SDS011;10390;53.566;9.980;2023-06-22T10:40:19;8.15;;;7.47;;
20462;SDS011;10390;53.566;9.980;2023-06-22T10:42:45;7.70;;;7.00;;
20462;SDS011;10390;53.566;9.980;2023-06-22T10:45:10;7.90;;;7.25;;
20462;SDS011;10390;53.566;9.980;2023-06-22T10:47:36;8.20;;;7.40;;
20462;SDS011;10390;53.566;9.980;2023-06-22T10:50:02;7.97;;;6.82;;
20462;SDS011;10390;53.566;9.980;2023-06-22T10:52:29;8.20;;;7.50;;
20462;SDS011;10390;53.566;9.980;2023-06-22T10:54:54;7.45;;;6.85;;
20462;SDS011;10390;53.566;9.980;2023-06-22T10:57:20;7.38;;;6.75;;
20462;SDS011;10390;53.566;9.980;2023-06-22T10:59:46;7.47;;;6.80;;
20462;SDS011;10390;53.566;9.980;2023-06-22T11:02:12;7.10;;;6.40;;
20462;SDS011;10390;53.566;9.980;2023-06-22T11:04:38;7.63;;;7.03;;
20462;SDS011;10390;53.566;9.980;2023-06-22T11:07:03;7.60;;;6.90;;
20462;SDS011;10390;53.566;9.980;2023-06-22T11:09:29;8.15;;;7.45;;
20462;SDS011;10390;53.566;9.980;2023-06-22T11:11:55;7.60;;;7.00;;
20462;SDS011;10390;53.566;9.980;2023-06-22T11:14:21;7.93;;;7.22;;
20462;SDS011;10390;53.566;9.980;2023-06-22T11:16:47;7.88;;;7.28;;
20462;SDS011;10390;53.566;9.980;2023-06-22T11:19:13;8.13;;;7.32;;
20462;SDS011;10390;53.566;9.980;2023-06-22T11:21:38;8.07;;;7.38;;
20462;SDS011;10390;53.566;9.980;2023-06-22T11:24:04;8.38;;;7.68;;
20462;SDS011;10390;53.566;9.980;2023-06-22T11:26:30;7.53;;;6.75;;
20462;SDS011;10390;53.566;9.980;2023-06-22T11:28:56;8.15;;;7.45;;
20462;SDS011;10390;53.566;9.980;2023-06-22T11:31:22;8.10;;;7.40;;
20462;SDS011;10390;53.566;9.980;2023-06-22T11:33:48;8.30;;;7.60;;
20462;SDS011;10390;53.566;9.980;2023-06-22T11:36:14;8.13;;;7.43;;
20462;SDS011;10390;53.566;9.980;2023-06-22T11:38:40;7.95;;;7.25;;
20462;SDS011;10390;53.566;9.980;2023-06-22T11:41:06;8.30;;;7.53;;
20462;SDS011;10390;53.566;9.980;2023-06-22T11:43:32;8.27;;;7.57;;
20462;SDS011;10390;53.566;9.980;2023-06-22T11:45:58;8.25;;;7.55;;
20462;SDS011;10390;53.566;9.980;2023-06-22T11:48:25;8.60;;;7.90;;
20462;SDS011;10390;53.566;9.980;2023-06-22T11:50:50;8.20;;;7.50;;
20462;SDS011;10390;53.566;9.980;2023-06-22T11:53:16;8.07;;;7.38;;
20462;SDS011;10390;53.566;9.980;2023-06-22T11:55:43;8.38;;;7.68;;
20462;SDS011;10390;53.566;9.980;2023-06-22T11:58:09;8.48;;;7.78;;
20462;SDS011;10390;53.566;9.980;2023-06-22T12:00:36;8.48;;;7.68;;
20462;SDS011;10390;53.566;9.980;2023-06-22T12:03:02;8.60;;;7.82;;
20462;SDS011;10390;53.566;9.980;2023-06-22T12:05:28;8.65;;;7.95;;
20462;SDS011;10390;53.566;9.980;2023-06-22T12:07:53;8.73;;;8.02;;
20462;SDS011;10390;53.566;9.980;2023-06-22T12:10:20;8.30;;;7.60;;
20462;SDS011;10390;53.566;9.980;2023-06-22T12:12:50;8.15;;;7.53;;
20462;SDS011;10390;53.566;9.980;2023-06-22T12:15:15;8.85;;;8.15;;
20462;SDS011;10390;53.566;9.980;2023-06-22T12:17:41;8.93;;;8.23;;
20462;SDS011;10390;53.566;9.980;2023-06-22T12:20:07;8.65;;;7.95;;
20462;SDS011;10390;53.566;9.980;2023-06-22T12:22:33;8.30;;;7.60;;
20462;SDS011;10390;53.566;9.980;2023-06-22T12:24:59;8.60;;;7.90;;
20462;SDS011;10390;53.566;9.980;2023-06-22T12:27:25;8.40;;;7.70;;
20462;SDS011;10390;53.566;9.980;2023-06-22T12:29:51;9.40;;;8.63;;
20462;SDS011;10390;53.566;9.980;2023-06-22T12:32:17;8.93;;;8.23;;
20462;SDS011;10390;53.566;9.980;2023-06-22T12:34:43;8.63;;;7.82;;
20462;SDS011;10390;53.566;9.980;2023-06-22T12:37:09;8.70;;;7.80;;
20462;SDS011;10390;53.566;9.980;2023-06-22T12:39:35;9.38;;;8.48;;
20462;SDS011;10390;53.566;9.980;2023-06-22T12:42:00;8.57;;;7.78;;
20462;SDS011;10390;53.566;9.980;2023-06-22T12:44:26;9.63;;;8.80;;
20462;SDS011;10390;53.566;9.980;2023-06-22T12:46:52;9.43;;;8.63;;
20462;SDS011;10390;53.566;9.980;2023-06-22T12:49:17;9.65;;;8.80;;
20462;SDS011;10390;53.566;9.980;2023-06-22T12:51:43;9.27;;;8.48;;
20462;SDS011;10390;53.566;9.980;2023-06-22T12:54:10;9.20;;;8.40;;
20462;SDS011;10390;53.566;9.980;2023-06-22T12:56:37;8.82;;;8.02;;
20462;SDS011;10390;53.566;9.980;2023-06-22T12:59:03;9.38;;;8.57;;
20462;SDS011;10390;53.566;9.980;2023-06-22T13:01:29;9.30;;;8.50;;
20462;SDS011;10390;53.566;9.980;2023-06-22T13:03:56;9.15;;;8.25;;
20462;SDS011;10390;53.566;9.980;2023-06-22T13:06:23;9.38;;;8.48;;
20462;SDS011;10390;53.566;9.980;2023-06-22T13:08:49;9.60;;;8.73;;
20462;SDS011;10390;53.566;9.980;2023-06-22T13:11:14;10.15;;;9.20;;
20462;SDS011;10390;53.566;9.980;2023-06-22T13:13:40;11.05;;;8.85;;
20462;SDS011;10390;53.566;9.980;2023-06-22T13:16:06;9.85;;;8.95;;
20462;SDS011;10390;53.566;9.980;2023-06-22T13:18:32;9.60;;;8.70;;
20462;SDS011;10390;53.566;9.980;2023-06-22T13:21:00;10.20;;;9.38;;
20462;SDS011;10390;53.566;9.980;2023-06-22T13:23:26;10.18;;;9.00;;
20462;SDS011;10390;53.566;9.980;2023-06-22T13:25:52;9.68;;;8.77;;
20462;SDS011;10390;53.566;9.980;2023-06-22T13:28:17;10.13;;;9.23;;
20462;SDS011;10390;53.566;9.980;2023-06-22T13:30:43;9.90;;;9.00;;
20462;SDS011;10390;53.566;9.980;2023-06-22T13:33:12;9.63;;;8.82;;
20462;SDS011;10390;53.566;9.980;2023-06-22T13:35:41;9.60;;;8.80;;
20462;SDS011;10390;53.566;9.980;2023-06-22T13:38:09;9.60;;;8.80;;
20462;SDS011;10390;53.566;9.980;2023-06-22T13:40:35;10.07;;;9.27;;
20462;SDS011;10390;53.566;9.980;2023-06-22T13:43:03;10.13;;;9.30;;
20462;SDS011;10390;53.566;9.980;2023-06-22T13:45:29;10.23;;;9.43;;
20462;SDS011;10390;53.566;9.980;2023-06-22T13:47:54;9.57;;;8.88;;
20462;SDS011;10390;53.566;9.980;2023-06-22T13:50:20;10.13;;;9.32;;
20462;SDS011;10390;53.566;9.980;2023-06-22T13:52:45;9.65;;;8.85;;
20462;SDS011;10390;53.566;9.980;2023-06-22T13:55:11;9.82;;;9.02;;
20462;SDS011;10390;53.566;9.980;2023-06-22T13:57:39;9.32;;;8.52;;
20462;SDS011;10390;53.566;9.980;2023-06-22T14:00:05;10.48;;;9.48;;
20462;SDS011;10390;53.566;9.980;2023-06-22T14:02:31;10.68;;;9.65;;
20462;SDS011;10390;53.566;9.980;2023-06-22T14:04:56;10.40;;;9.50;;
20462;SDS011;10390;53.566;9.980;2023-06-22T14:07:22;10.85;;;9.85;;
20462;SDS011;10390;53.566;9.980;2023-06-22T14:09:49;10.20;;;9.40;;
20462;SDS011;10390;53.566;9.980;2023-06-22T14:12:17;10.57;;;9.68;;
20462;SDS011;10390;53.566;9.980;2023-06-22T14:14:43;9.73;;;8.82;;
20462;SDS011;10390;53.566;9.980;2023-06-22T14:17:08;9.65;;;8.85;;
20462;SDS011;10390;53.566;9.980;2023-06-22T14:19:35;10.77;;;9.85;;
20462;SDS011;10390;53.566;9.980;2023-06-22T14:22:00;9.13;;;8.32;;
20462;SDS011;10390;53.566;9.980;2023-06-22T14:24:26;8.90;;;8.20;;
20462;SDS011;10390;53.566;9.980;2023-06-22T14:26:52;10.20;;;9.27;;
20462;SDS011;10390;53.566;9.980;2023-06-22T14:29:18;9.57;;;8.73;;
20462;SDS011;10390;53.566;9.980;2023-06-22T14:31:47;9.82;;;8.98;;
20462;SDS011;10390;53.566;9.980;2023-06-22T14:34:14;9.85;;;9.05;;
20462;SDS011;10390;53.566;9.980;2023-06-22T14:36:40;9.55;;;8.75;;
20462;SDS011;10390;53.566;9.980;2023-06-22T14:39:06;10.40;;;9.30;;
20462;SDS011;10390;53.566;9.980;2023-06-22T14:41:31;10.40;;;8.98;;
20462;SDS011;10390;53.566;9.980;2023-06-22T14:43:57;9.30;;;8.40;;
20462;SDS011;10390;53.566;9.980;2023-06-22T14:46:23;9.43;;;8.63;;
20462;SDS011;10390;53.566;9.980;2023-06-22T14:48:49;9.93;;;9.13;;
20462;SDS011;10390;53.566;9.980;2023-06-22T14:51:14;10.05;;;9.02;;
20462;SDS011;10390;53.566;9.980;2023-06-22T14:53:40;10.57;;;9.55;;